sensor_id;sensor_type;location;lat;lon;timestamp;pressure;altitude;pressure_sealevel;temperature;humidity
71948;BME280;63257;55.082;38.772;2023-05-14T00:00:20;100368.13;;;11.82;54.71
71948;BME280;63257;55.082;38.772;2023-05-14T00:02:45;100381.19;;;11.85;54.75
71948;BME280;63257;55.082;38.772;2023-05-14T00:05:11;100358.41;;;11.65;54.78
71948;BME280;63257;55.082;38.772;2023-05-14T00:07:37;100372.16;;;11.71;55.33
71948;BME280;63257;55.082;38.772;2023-05-14T00:10:03;100378.41;;;11.70;55.19
71948;BME280;63257;55.082;38.772;2023-05-14T00:12:31;100331.97;;;11.30;55.34
71948;BME280;63257;55.082;38.772;2023-05-14T00:14:56;100389.28;;;11.64;55.83
71948;BME280;63257;55.082;38.772;2023-05-14T00:17:22;100391.38;;;11.58;55.71
71948;BME280;63257;55.082;38.772;2023-05-14T00:19:48;100390.81;;;11.51;56.16
71948;BME280;63257;55.082;38.772;2023-05-14T00:22:14;100385.06;;;11.43;56.54
71948;BME280;63257;55.082;38.772;2023-05-14T00:24:40;100373.19;;;11.34;56.37
71948;BME280;63257;55.082;38.772;2023-05-14T00:27:05;100395.63;;;11.43;56.20
71948;BME280;63257;55.082;38.772;2023-05-14T00:29:32;100383.66;;;11.35;56.79
71948;BME280;63257;55.082;38.772;2023-05-14T00:31:57;100392.53;;;11.34;57.26
71948;BME280;63257;55.082;38.772;2023-05-14T00:34:23;100395.41;;;11.30;57.21
71948;BME280;63257;55.082;38.772;2023-05-14T00:36:50;100398.34;;;11.24;57.61
71948;BME280;63257;55.082;38.772;2023-05-14T00:39:16;100398.66;;;11.17;57.51
71948;BME280;63257;55.082;38.772;2023-05-14T00:41:42;100379.66;;;11.09;57.63
71948;BME280;63257;55.082;38.772;2023-05-14T00:44:08;100397.44;;;11.06;58.47
71948;BME280;63257;55.082;38.772;2023-05-14T00:46:33;100377.84;;;10.92;58.28
71948;BME280;63257;55.082;38.772;2023-05-14T00:48:59;100398.59;;;11.00;58.31
71948;BME280;63257;55.082;38.772;2023-05-14T00:51:25;100392.81;;;10.92;58.63
71948;BME280;63257;55.082;38.772;2023-05-14T00:53:52;100396.34;;;10.92;58.85
71948;BME280;63257;55.082;38.772;2023-05-14T00:56:18;100367.50;;;10.68;58.96
71948;BME280;63257;55.082;38.772;2023-05-14T00:58:44;100392.41;;;10.82;58.91
71948;BME280;63257;55.082;38.772;2023-05-14T01:01:10;100402.97;;;10.82;59.20
71948;BME280;63257;55.082;38.772;2023-05-14T01:03:40;100359.81;;;10.45;59.57
71948;BME280;63257;55.082;38.772;2023-05-14T01:06:17;100408.41;;;10.79;59.54
71948;BME280;63257;55.082;38.772;2023-05-14T01:08:57;100390.91;;;10.57;59.89
71948;BME280;63257;55.082;38.772;2023-05-14T01:14:12;100419.59;;;10.65;59.92
71948;BME280;63257;55.082;38.772;2023-05-14T01:16:39;100417.16;;;10.60;60.12
71948;BME280;63257;55.082;38.772;2023-05-14T01:19:09;100416.66;;;10.52;60.07
71948;BME280;63257;55.082;38.772;2023-05-14T01:21:42;100421.31;;;10.47;60.53
71948;BME280;63257;55.082;38.772;2023-05-14T01:24:08;100436.19;;;10.48;60.59
71948;BME280;63257;55.082;38.772;2023-05-14T01:26:35;100432.72;;;10.47;60.81
71948;BME280;63257;55.082;38.772;2023-05-14T01:29:12;100409.97;;;10.24;60.81
71948;BME280;63257;55.082;38.772;2023-05-14T01:31:42;100409.81;;;10.27;61.08
71948;BME280;63257;55.082;38.772;2023-05-14T01:34:10;100430.66;;;10.33;61.30
71948;BME280;63257;55.082;38.772;2023-05-14T01:36:37;100437.69;;;10.34;61.26
71948;BME280;63257;55.082;38.772;2023-05-14T01:39:04;100407.72;;;10.15;61.21
71948;BME280;63257;55.082;38.772;2023-05-14T01:41:35;100438.75;;;10.29;61.29
71948;BME280;63257;55.082;38.772;2023-05-14T01:44:02;100415.69;;;10.13;61.79
71948;BME280;63257;55.082;38.772;2023-05-14T01:46:32;100428.63;;;10.19;61.76
71948;BME280;63257;55.082;38.772;2023-05-14T01:48:58;100411.78;;;10.03;61.99
71948;BME280;63257;55.082;38.772;2023-05-14T01:51:25;100433.03;;;10.19;61.83
71948;BME280;63257;55.082;38.772;2023-05-14T01:53:51;100428.75;;;10.16;62.18
71948;BME280;63257;55.082;38.772;2023-05-14T01:56:19;100409.91;;;10.05;62.43
71948;BME280;63257;55.082;38.772;2023-05-14T01:58:46;100396.19;;;9.97;62.62
71948;BME280;63257;55.082;38.772;2023-05-14T02:01:12;100431.66;;;10.10;62.30
71948;BME280;63257;55.082;38.772;2023-05-14T02:03:38;100434.22;;;10.12;62.59
71948;BME280;63257;55.082;38.772;2023-05-14T02:06:04;100435.22;;;10.09;62.84
71948;BME280;63257;55.082;38.772;2023-05-14T02:08:30;100439.50;;;10.12;62.62
71948;BME280;63257;55.082;38.772;2023-05-14T02:10:55;100445.69;;;10.11;62.52
71948;BME280;63257;55.082;38.772;2023-05-14T02:13:24;100421.72;;;9.96;62.94
71948;BME280;63257;55.082;38.772;2023-05-14T02:15:52;100435.28;;;10.08;62.56
71948;BME280;63257;55.082;38.772;2023-05-14T02:18:18;100419.84;;;9.98;63.01
71948;BME280;63257;55.082;38.772;2023-05-14T02:20:45;100442.88;;;10.15;63.00
71948;BME280;63257;55.082;38.772;2023-05-14T02:23:11;100445.59;;;10.14;62.93
71948;BME280;63257;55.082;38.772;2023-05-14T02:25:37;100424.16;;;10.01;62.99
71948;BME280;63257;55.082;38.772;2023-05-14T02:28:04;100451.50;;;10.19;62.81
71948;BME280;63257;55.082;38.772;2023-05-14T02:30:30;100451.38;;;10.22;62.83
71948;BME280;63257;55.082;38.772;2023-05-14T02:32:56;100456.59;;;10.24;62.73
71948;BME280;63257;55.082;38.772;2023-05-14T02:35:23;100459.94;;;10.27;62.33
71948;BME280;63257;55.082;38.772;2023-05-14T02:37:49;100460.88;;;10.26;62.60
71948;BME280;63257;55.082;38.772;2023-05-14T02:40:15;100443.34;;;10.25;62.13
71948;BME280;63257;55.082;38.772;2023-05-14T02:42:40;100442.47;;;10.25;62.57
71948;BME280;63257;55.082;38.772;2023-05-14T02:45:07;100468.41;;;10.35;62.31
71948;BME280;63257;55.082;38.772;2023-05-14T02:47:33;100464.97;;;10.33;62.27
71948;BME280;63257;55.082;38.772;2023-05-14T02:49:59;100444.91;;;10.29;62.45
71948;BME280;63257;55.082;38.772;2023-05-14T02:52:25;100463.66;;;10.44;62.51
71948;BME280;63257;55.082;38.772;2023-05-14T02:54:51;100443.03;;;10.31;62.88
71948;BME280;63257;55.082;38.772;2023-05-14T02:57:17;100468.66;;;10.50;62.56
71948;BME280;63257;55.082;38.772;2023-05-14T02:59:44;100472.38;;;10.46;62.34
71948;BME280;63257;55.082;38.772;2023-05-14T03:02:10;100457.59;;;10.42;62.45
71948;BME280;63257;55.082;38.772;2023-05-14T03:04:36;100475.91;;;10.45;62.77
71948;BME280;63257;55.082;38.772;2023-05-14T03:07:02;100465.38;;;10.45;62.35
71948;BME280;63257;55.082;38.772;2023-05-14T03:09:28;100469.50;;;10.50;62.70
71948;BME280;63257;55.082;38.772;2023-05-14T03:11:55;100479.06;;;10.53;62.14
71948;BME280;63257;55.082;38.772;2023-05-14T03:14:21;100487.00;;;10.53;62.68
71948;BME280;63257;55.082;38.772;2023-05-14T03:16:47;100486.22;;;10.51;62.93
71948;BME280;63257;55.082;38.772;2023-05-14T03:19:13;100482.38;;;10.58;63.17
71948;BME280;63257;55.082;38.772;2023-05-14T03:21:39;100489.72;;;10.51;63.05
71948;BME280;63257;55.082;38.772;2023-05-14T03:24:05;100470.66;;;10.45;62.79
71948;BME280;63257;55.082;38.772;2023-05-14T03:26:31;100493.59;;;10.63;62.71
71948;BME280;63257;55.082;38.772;2023-05-14T03:28:57;100470.03;;;10.59;62.71
71948;BME280;63257;55.082;38.772;2023-05-14T03:31:23;100461.66;;;10.49;62.59
71948;BME280;63257;55.082;38.772;2023-05-14T03:33:49;100442.06;;;10.34;63.20
71948;BME280;63257;55.082;38.772;2023-05-14T03:36:15;100497.53;;;10.74;63.13
71948;BME280;63257;55.082;38.772;2023-05-14T03:38:41;100435.28;;;10.49;62.74
71948;BME280;63257;55.082;38.772;2023-05-14T03:41:07;100495.06;;;10.90;62.52
71948;BME280;63257;55.082;38.772;2023-05-14T03:43:33;100495.25;;;10.85;62.82
71948;BME280;63257;55.082;38.772;2023-05-14T03:45:59;100500.34;;;10.90;62.76
71948;BME280;63257;55.082;38.772;2023-05-14T03:48:26;100499.03;;;10.98;62.91
71948;BME280;63257;55.082;38.772;2023-05-14T03:50:51;100510.94;;;11.07;62.74
71948;BME280;63257;55.082;38.772;2023-05-14T03:53:17;100499.88;;;11.18;62.79
71948;BME280;63257;55.082;38.772;2023-05-14T03:55:44;100507.53;;;11.24;62.11
71948;BME280;63257;55.082;38.772;2023-05-14T03:58:10;100492.47;;;11.26;61.59
71948;BME280;63257;55.082;38.772;2023-05-14T04:00:42;100473.78;;;11.12;61.57
71948;BME280;63257;55.082;38.772;2023-05-14T04:03:10;100510.94;;;11.45;61.47
71948;BME280;63257;55.082;38.772;2023-05-14T04:05:36;100497.03;;;11.42;61.12
71948;BME280;63257;55.082;38.772;2023-05-14T04:08:02;100500.88;;;11.34;61.07
71948;BME280;63257;55.082;38.772;2023-05-14T04:10:28;100511.16;;;11.41;60.74
71948;BME280;63257;55.082;38.772;2023-05-14T04:12:54;100504.31;;;11.36;60.61
71948;BME280;63257;55.082;38.772;2023-05-14T04:15:22;100525.53;;;11.54;61.08
71948;BME280;63257;55.082;38.772;2023-05-14T04:17:48;100502.56;;;11.54;60.94
71948;BME280;63257;55.082;38.772;2023-05-14T04:20:14;100504.91;;;11.61;60.53
71948;BME280;63257;55.082;38.772;2023-05-14T04:22:40;100506.06;;;11.55;60.46
71948;BME280;63257;55.082;38.772;2023-05-14T04:25:06;100508.34;;;11.63;60.15
71948;BME280;63257;55.082;38.772;2023-05-14T04:27:32;100513.75;;;11.79;59.50
71948;BME280;63257;55.082;38.772;2023-05-14T04:29:59;100511.59;;;11.87;59.97
71948;BME280;63257;55.082;38.772;2023-05-14T04:32:25;100498.41;;;11.85;60.13
71948;BME280;63257;55.082;38.772;2023-05-14T04:34:50;100518.44;;;12.09;59.81
71948;BME280;63257;55.082;38.772;2023-05-14T04:37:16;100501.66;;;12.10;59.52
71948;BME280;63257;55.082;38.772;2023-05-14T04:39:42;100516.44;;;12.14;59.11
71948;BME280;63257;55.082;38.772;2023-05-14T04:42:08;100511.38;;;12.09;58.82
71948;BME280;63257;55.082;38.772;2023-05-14T04:44:34;100488.19;;;11.97;59.03
71948;BME280;63257;55.082;38.772;2023-05-14T04:47:01;100525.38;;;12.29;58.43
71948;BME280;63257;55.082;38.772;2023-05-14T04:49:27;100510.84;;;12.20;58.48
71948;BME280;63257;55.082;38.772;2023-05-14T04:51:53;100512.25;;;12.27;58.94
71948;BME280;63257;55.082;38.772;2023-05-14T04:54:19;100499.94;;;12.26;58.60
71948;BME280;63257;55.082;38.772;2023-05-14T04:56:45;100527.94;;;12.48;58.13
71948;BME280;63257;55.082;38.772;2023-05-14T04:59:12;100522.19;;;12.57;58.29
71948;BME280;63257;55.082;38.772;2023-05-14T05:01:38;100507.19;;;12.73;57.88
71948;BME280;63257;55.082;38.772;2023-05-14T05:04:04;100517.81;;;12.89;56.93
71948;BME280;63257;55.082;38.772;2023-05-14T05:06:29;100510.47;;;12.95;56.18
71948;BME280;63257;55.082;38.772;2023-05-14T05:08:56;100519.72;;;13.19;55.87
71948;BME280;63257;55.082;38.772;2023-05-14T05:11:22;100489.34;;;13.09;55.84
71948;BME280;63257;55.082;38.772;2023-05-14T05:13:47;100534.63;;;13.38;55.52
71948;BME280;63257;55.082;38.772;2023-05-14T05:16:13;100514.28;;;13.38;55.51
71948;BME280;63257;55.082;38.772;2023-05-14T05:18:40;100530.13;;;13.40;55.46
71948;BME280;63257;55.082;38.772;2023-05-14T05:21:06;100523.31;;;13.34;55.08
71948;BME280;63257;55.082;38.772;2023-05-14T05:23:31;100529.34;;;13.54;55.15
71948;BME280;63257;55.082;38.772;2023-05-14T05:25:57;100525.38;;;13.61;54.74
71948;BME280;63257;55.082;38.772;2023-05-14T05:28:23;100519.97;;;13.95;54.57
71948;BME280;63257;55.082;38.772;2023-05-14T05:30:49;100507.22;;;13.85;54.02
71948;BME280;63257;55.082;38.772;2023-05-14T05:33:15;100525.91;;;13.98;53.69
71948;BME280;63257;55.082;38.772;2023-05-14T05:35:41;100531.41;;;14.25;53.11
71948;BME280;63257;55.082;38.772;2023-05-14T05:38:07;100517.38;;;14.23;53.02
71948;BME280;63257;55.082;38.772;2023-05-14T05:40:33;100513.41;;;14.31;53.02
71948;BME280;63257;55.082;38.772;2023-05-14T05:42:59;100541.69;;;14.46;53.40
71948;BME280;63257;55.082;38.772;2023-05-14T05:45:25;100518.28;;;14.38;53.53
71948;BME280;63257;55.082;38.772;2023-05-14T05:47:51;100536.28;;;14.48;53.59
71948;BME280;63257;55.082;38.772;2023-05-14T05:50:17;100531.09;;;14.61;52.87
71948;BME280;63257;55.082;38.772;2023-05-14T05:52:42;100531.19;;;14.59;53.22
71948;BME280;63257;55.082;38.772;2023-05-14T05:55:08;100523.50;;;14.54;52.93
71948;BME280;63257;55.082;38.772;2023-05-14T05:57:34;100509.53;;;14.36;53.25
71948;BME280;63257;55.082;38.772;2023-05-14T06:00:00;100536.28;;;14.48;53.20
71948;BME280;63257;55.082;38.772;2023-05-14T06:02:40;100523.09;;;14.46;53.31
71948;BME280;63257;55.082;38.772;2023-05-14T06:05:07;100530.75;;;14.67;53.41
71948;BME280;63257;55.082;38.772;2023-05-14T06:07:33;100516.72;;;14.79;53.24
71948;BME280;63257;55.082;38.772;2023-05-14T06:09:59;100534.94;;;15.00;52.01
71948;BME280;63257;55.082;38.772;2023-05-14T06:12:25;100532.00;;;14.75;52.81
71948;BME280;63257;55.082;38.772;2023-05-14T06:14:53;100529.91;;;14.95;51.32
71948;BME280;63257;55.082;38.772;2023-05-14T06:17:20;100534.66;;;15.04;51.75
71948;BME280;63257;55.082;38.772;2023-05-14T06:19:46;100534.25;;;15.25;51.54
71948;BME280;63257;55.082;38.772;2023-05-14T06:22:12;100526.03;;;15.42;50.98
71948;BME280;63257;55.082;38.772;2023-05-14T06:24:39;100522.72;;;15.39;50.46
71948;BME280;63257;55.082;38.772;2023-05-14T06:27:05;100513.69;;;15.41;50.57
71948;BME280;63257;55.082;38.772;2023-05-14T06:29:31;100522.63;;;15.40;50.51
71948;BME280;63257;55.082;38.772;2023-05-14T06:32:00;100526.91;;;15.29;49.98
71948;BME280;63257;55.082;38.772;2023-05-14T06:34:26;100528.47;;;15.18;51.67
71948;BME280;63257;55.082;38.772;2023-05-14T06:36:52;100502.72;;;15.19;51.47
71948;BME280;63257;55.082;38.772;2023-05-14T06:39:18;100514.28;;;15.32;50.82
71948;BME280;63257;55.082;38.772;2023-05-14T06:41:44;100488.28;;;15.23;49.61
71948;BME280;63257;55.082;38.772;2023-05-14T06:44:15;100493.13;;;15.31;49.07
71948;BME280;63257;55.082;38.772;2023-05-14T06:46:41;100497.88;;;15.53;47.51
71948;BME280;63257;55.082;38.772;2023-05-14T06:49:06;100488.97;;;15.54;47.25
71948;BME280;63257;55.082;38.772;2023-05-14T06:51:32;100499.03;;;15.76;47.26
71948;BME280;63257;55.082;38.772;2023-05-14T06:53:58;100512.97;;;15.94;46.00
71948;BME280;63257;55.082;38.772;2023-05-14T06:56:24;100487.84;;;15.98;45.09
71948;BME280;63257;55.082;38.772;2023-05-14T06:58:50;100511.94;;;16.22;43.99
71948;BME280;63257;55.082;38.772;2023-05-14T07:01:15;100513.03;;;16.20;43.83
71948;BME280;63257;55.082;38.772;2023-05-14T07:03:42;100510.22;;;16.08;43.83
71948;BME280;63257;55.082;38.772;2023-05-14T07:06:08;100504.75;;;15.97;44.38
71948;BME280;63257;55.082;38.772;2023-05-14T07:08:33;100506.03;;;16.04;43.86
71948;BME280;63257;55.082;38.772;2023-05-14T07:10:59;100514.53;;;16.24;43.67
71948;BME280;63257;55.082;38.772;2023-05-14T07:13:25;100514.94;;;16.31;43.16
71948;BME280;63257;55.082;38.772;2023-05-14T07:15:53;100522.84;;;16.32;42.12
71948;BME280;63257;55.082;38.772;2023-05-14T07:18:22;100512.03;;;16.21;41.75
71948;BME280;63257;55.082;38.772;2023-05-14T07:20:48;100537.16;;;16.04;41.91
71948;BME280;63257;55.082;38.772;2023-05-14T07:23:14;100532.06;;;16.14;41.31
71948;BME280;63257;55.082;38.772;2023-05-14T07:25:40;100513.09;;;16.18;41.29
71948;BME280;63257;55.082;38.772;2023-05-14T07:28:06;100529.44;;;16.52;40.50
71948;BME280;63257;55.082;38.772;2023-05-14T07:30:32;100527.66;;;16.66;40.85
71948;BME280;63257;55.082;38.772;2023-05-14T07:32:58;100549.69;;;16.68;39.32
71948;BME280;63257;55.082;38.772;2023-05-14T07:35:24;100532.22;;;16.38;40.01
71948;BME280;63257;55.082;38.772;2023-05-14T07:37:50;100543.09;;;16.48;40.26
71948;BME280;63257;55.082;38.772;2023-05-14T07:40:16;100496.81;;;16.23;40.17
71948;BME280;63257;55.082;38.772;2023-05-14T07:42:44;100539.88;;;16.55;39.39
71948;BME280;63257;55.082;38.772;2023-05-14T07:45:09;100490.44;;;16.51;39.47
71948;BME280;63257;55.082;38.772;2023-05-14T07:47:36;100541.50;;;16.96;39.00
71948;BME280;63257;55.082;38.772;2023-05-14T07:50:02;100543.56;;;16.93;39.25
71948;BME280;63257;55.082;38.772;2023-05-14T07:52:34;100523.28;;;16.77;39.01
71948;BME280;63257;55.082;38.772;2023-05-14T07:55:38;100533.28;;;16.87;39.16
71948;BME280;63257;55.082;38.772;2023-05-14T07:58:03;100538.19;;;16.67;38.91
71948;BME280;63257;55.082;38.772;2023-05-14T08:00:29;100544.41;;;16.93;38.90
71948;BME280;63257;55.082;38.772;2023-05-14T08:02:55;100541.00;;;16.91;37.95
71948;BME280;63257;55.082;38.772;2023-05-14T08:05:21;100545.88;;;17.10;38.88
71948;BME280;63257;55.082;38.772;2023-05-14T08:07:47;100542.47;;;17.08;37.19
71948;BME280;63257;55.082;38.772;2023-05-14T08:10:13;100549.69;;;17.19;36.94
71948;BME280;63257;55.082;38.772;2023-05-14T08:12:39;100547.16;;;17.18;37.12
71948;BME280;63257;55.082;38.772;2023-05-14T08:15:05;100549.84;;;16.92;36.35
71948;BME280;63257;55.082;38.772;2023-05-14T08:17:32;100535.19;;;16.72;36.26
71948;BME280;63257;55.082;38.772;2023-05-14T08:20:01;100521.00;;;16.84;37.40
71948;BME280;63257;55.082;38.772;2023-05-14T08:22:28;100540.34;;;16.75;37.24
71948;BME280;63257;55.082;38.772;2023-05-14T08:24:53;100542.78;;;16.52;38.07
71948;BME280;63257;55.082;38.772;2023-05-14T08:27:19;100537.13;;;16.83;37.69
71948;BME280;63257;55.082;38.772;2023-05-14T08:29:46;100518.25;;;16.99;36.62
71948;BME280;63257;55.082;38.772;2023-05-14T08:32:11;100539.81;;;17.45;35.79
71948;BME280;63257;55.082;38.772;2023-05-14T08:34:37;100539.75;;;17.34;35.56
71948;BME280;63257;55.082;38.772;2023-05-14T08:37:03;100560.16;;;16.84;35.38
71948;BME280;63257;55.082;38.772;2023-05-14T08:39:29;100554.16;;;16.80;35.78
71948;BME280;63257;55.082;38.772;2023-05-14T08:41:56;100537.13;;;16.83;36.17
71948;BME280;63257;55.082;38.772;2023-05-14T08:44:34;100554.66;;;17.00;35.68
71948;BME280;63257;55.082;38.772;2023-05-14T08:47:00;100536.00;;;17.37;34.81
71948;BME280;63257;55.082;38.772;2023-05-14T08:56:17;100543.66;;;17.41;35.54
71948;BME280;63257;55.082;38.772;2023-05-14T08:58:44;100541.69;;;17.19;35.63
71948;BME280;63257;55.082;38.772;2023-05-14T09:01:10;100536.72;;;17.39;34.02
71948;BME280;63257;55.082;38.772;2023-05-14T09:03:36;100533.84;;;17.42;33.68
71948;BME280;63257;55.082;38.772;2023-05-14T09:06:03;100521.59;;;17.63;33.81
71948;BME280;63257;55.082;38.772;2023-05-14T09:08:30;100539.00;;;17.93;33.90
71948;BME280;63257;55.082;38.772;2023-05-14T09:10:56;100529.09;;;17.83;33.05
71948;BME280;63257;55.082;38.772;2023-05-14T09:13:22;100516.31;;;17.99;33.06
71948;BME280;63257;55.082;38.772;2023-05-14T09:15:48;100533.56;;;18.06;33.63
71948;BME280;63257;55.082;38.772;2023-05-14T09:18:16;100513.56;;;18.12;34.43
71948;BME280;63257;55.082;38.772;2023-05-14T09:20:42;100529.72;;;18.10;33.89
71948;BME280;63257;55.082;38.772;2023-05-14T09:23:08;100474.47;;;17.51;34.10
71948;BME280;63257;55.082;38.772;2023-05-14T09:25:33;100531.13;;;17.79;34.09
71948;BME280;63257;55.082;38.772;2023-05-14T09:28:04;100539.97;;;17.92;34.82
71948;BME280;63257;55.082;38.772;2023-05-14T09:34:42;100516.75;;;18.28;31.31
71948;BME280;63257;55.082;38.772;2023-05-14T09:37:08;100513.38;;;18.38;31.76
71948;BME280;63257;55.082;38.772;2023-05-14T09:43:40;100524.22;;;17.52;32.92
71948;BME280;63257;55.082;38.772;2023-05-14T09:46:06;100516.81;;;17.93;31.94
71948;BME280;63257;55.082;38.772;2023-05-14T09:48:32;100518.81;;;18.13;32.16
71948;BME280;63257;55.082;38.772;2023-05-14T09:50:58;100528.91;;;18.21;32.31
71948;BME280;63257;55.082;38.772;2023-05-14T09:53:24;100526.56;;;18.05;33.09
71948;BME280;63257;55.082;38.772;2023-05-14T09:56:06;100518.53;;;17.81;32.61
71948;BME280;63257;55.082;38.772;2023-05-14T10:02:45;100504.88;;;17.49;33.66
71948;BME280;63257;55.082;38.772;2023-05-14T10:05:12;100510.09;;;17.50;32.68
71948;BME280;63257;55.082;38.772;2023-05-14T10:07:46;100498.91;;;17.69;32.35
71948;BME280;63257;55.082;38.772;2023-05-14T10:14:49;100488.06;;;19.00;30.30
71948;BME280;63257;55.082;38.772;2023-05-14T10:17:23;100496.09;;;18.89;30.68
71948;BME280;63257;55.082;38.772;2023-05-14T10:19:53;100514.41;;;18.59;30.11
71948;BME280;63257;55.082;38.772;2023-05-14T10:22:26;100501.75;;;18.50;31.04
71948;BME280;63257;55.082;38.772;2023-05-14T10:29:13;100498.63;;;18.79;30.97
71948;BME280;63257;55.082;38.772;2023-05-14T10:31:49;100509.06;;;18.82;30.81
71948;BME280;63257;55.082;38.772;2023-05-14T10:37:07;100484.06;;;19.06;30.68
71948;BME280;63257;55.082;38.772;2023-05-14T10:39:50;100503.97;;;19.13;28.21
71948;BME280;63257;55.082;38.772;2023-05-14T10:42:24;100502.91;;;19.59;30.01
71948;BME280;63257;55.082;38.772;2023-05-14T10:45:01;100500.09;;;19.61;29.41
71948;BME280;63257;55.082;38.772;2023-05-14T10:47:30;100498.97;;;19.75;29.36
71948;BME280;63257;55.082;38.772;2023-05-14T10:49:58;100501.56;;;19.97;29.83
71948;BME280;63257;55.082;38.772;2023-05-14T10:52:25;100491.78;;;19.31;30.07
71948;BME280;63257;55.082;38.772;2023-05-14T10:54:56;100498.97;;;18.86;30.38
71948;BME280;63257;55.082;38.772;2023-05-14T10:57:27;100509.38;;;18.32;31.28
71948;BME280;63257;55.082;38.772;2023-05-14T10:59:55;100499.75;;;18.18;32.16
71948;BME280;63257;55.082;38.772;2023-05-14T11:02:26;100493.31;;;18.21;32.25
71948;BME280;63257;55.082;38.772;2023-05-14T11:05:06;100510.19;;;18.21;32.23
71948;BME280;63257;55.082;38.772;2023-05-14T11:07:45;100506.34;;;18.37;32.91
71948;BME280;63257;55.082;38.772;2023-05-14T11:10:19;100513.16;;;18.41;31.62
71948;BME280;63257;55.082;38.772;2023-05-14T11:12:47;100497.28;;;18.73;29.78
71948;BME280;63257;55.082;38.772;2023-05-14T11:15:19;100482.91;;;18.52;30.10
71948;BME280;63257;55.082;38.772;2023-05-14T11:17:46;100503.84;;;19.70;29.00
71948;BME280;63257;55.082;38.772;2023-05-14T11:20:13;100492.59;;;20.50;28.15
71948;BME280;63257;55.082;38.772;2023-05-14T11:22:40;100495.69;;;20.98;27.86
71948;BME280;63257;55.082;38.772;2023-05-14T11:25:07;100492.56;;;20.41;27.54
71948;BME280;63257;55.082;38.772;2023-05-14T11:27:35;100487.38;;;20.07;28.67
71948;BME280;63257;55.082;38.772;2023-05-14T11:30:02;100474.94;;;20.48;27.07
71948;BME280;63257;55.082;38.772;2023-05-14T11:32:33;100489.88;;;20.93;26.98
71948;BME280;63257;55.082;38.772;2023-05-14T11:35:00;100480.56;;;21.67;26.59
71948;BME280;63257;55.082;38.772;2023-05-14T11:37:25;100479.41;;;22.18;25.20
71948;BME280;63257;55.082;38.772;2023-05-14T11:39:53;100483.25;;;22.73;24.45
71948;BME280;63257;55.082;38.772;2023-05-14T11:42:20;100483.75;;;22.49;25.01
71948;BME280;63257;55.082;38.772;2023-05-14T11:44:49;100483.56;;;21.74;25.79
71948;BME280;63257;55.082;38.772;2023-05-14T11:47:18;100476.34;;;21.74;26.38
71948;BME280;63257;55.082;38.772;2023-05-14T11:49:44;100499.88;;;20.39;28.51
71948;BME280;63257;55.082;38.772;2023-05-14T11:52:12;100492.09;;;20.57;27.49
71948;BME280;63257;55.082;38.772;2023-05-14T11:54:42;100499.56;;;20.84;27.09
71948;BME280;63257;55.082;38.772;2023-05-14T11:57:13;100502.69;;;20.89;27.62
71948;BME280;63257;55.082;38.772;2023-05-14T11:59:40;100490.59;;;21.05;27.77
71948;BME280;63257;55.082;38.772;2023-05-14T12:02:14;100477.13;;;21.45;26.24
71948;BME280;63257;55.082;38.772;2023-05-14T12:04:41;100483.13;;;21.88;27.21
71948;BME280;63257;55.082;38.772;2023-05-14T12:07:12;100485.72;;;21.29;26.75
71948;BME280;63257;55.082;38.772;2023-05-14T12:09:41;100474.88;;;21.50;26.79
71948;BME280;63257;55.082;38.772;2023-05-14T12:12:10;100502.69;;;21.30;27.62
71948;BME280;63257;55.082;38.772;2023-05-14T12:14:41;100498.25;;;21.79;26.25
71948;BME280;63257;55.082;38.772;2023-05-14T12:17:21;100465.44;;;22.05;26.25
71948;BME280;63257;55.082;38.772;2023-05-14T12:19:50;100491.69;;;22.41;25.39
71948;BME280;63257;55.082;38.772;2023-05-14T12:22:20;100481.63;;;22.52;25.15
71948;BME280;63257;55.082;38.772;2023-05-14T12:24:54;100476.38;;;23.44;24.97
71948;BME280;63257;55.082;38.772;2023-05-14T12:27:26;100490.91;;;23.69;24.53
71948;BME280;63257;55.082;38.772;2023-05-14T12:29:59;100479.41;;;23.31;24.16
71948;BME280;63257;55.082;38.772;2023-05-14T12:32:34;100477.53;;;23.60;24.99
71948;BME280;63257;55.082;38.772;2023-05-14T12:35:00;100465.53;;;23.90;24.48
71948;BME280;63257;55.082;38.772;2023-05-14T12:37:27;100484.50;;;22.79;26.05
71948;BME280;63257;55.082;38.772;2023-05-14T12:39:53;100486.59;;;22.85;25.75
71948;BME280;63257;55.082;38.772;2023-05-14T12:42:19;100484.44;;;22.51;25.82
71948;BME280;63257;55.082;38.772;2023-05-14T12:44:46;100496.28;;;23.51;25.28
71948;BME280;63257;55.082;38.772;2023-05-14T12:47:12;100492.53;;;23.80;24.19
71948;BME280;63257;55.082;38.772;2023-05-14T12:49:38;100488.88;;;23.08;24.27
71948;BME280;63257;55.082;38.772;2023-05-14T12:52:04;100482.25;;;23.02;23.90
71948;BME280;63257;55.082;38.772;2023-05-14T12:54:30;100456.84;;;21.72;25.83
71948;BME280;63257;55.082;38.772;2023-05-14T12:56:57;100497.84;;;21.14;27.19
71948;BME280;63257;55.082;38.772;2023-05-14T12:59:23;100495.09;;;20.42;27.91
71948;BME280;63257;55.082;38.772;2023-05-14T13:01:48;100501.00;;;20.36;28.83
71948;BME280;63257;55.082;38.772;2023-05-14T13:07:58;100498.78;;;19.99;29.37
71948;BME280;63257;55.082;38.772;2023-05-14T13:10:25;100496.03;;;19.34;30.52
71948;BME280;63257;55.082;38.772;2023-05-14T13:12:50;100490.56;;;19.24;31.11
71948;BME280;63257;55.082;38.772;2023-05-14T13:15:37;100497.91;;;19.22;31.48
71948;BME280;63257;55.082;38.772;2023-05-14T13:18:03;100495.47;;;18.96;31.45